sensor_id;sensor_type;location;lat;lon;timestamp;P1;durP1;ratioP1;P2;durP2;ratioP2
5465;SDS011;2755;50.728;7.108;2024-01-15T00:00:13;115.07;;;28.77;;
5465;SDS011;2755;50.728;7.108;2024-01-15T00:02:39;115.47;;;29.90;;
5465;SDS011;2755;50.728;7.108;2024-01-15T00:05:04;114.07;;;28.37;;
5465;SDS011;2755;50.728;7.108;2024-01-15T00:07:30;114.03;;;28.20;;
5465;SDS011;2755;50.728;7.108;2024-01-15T00:09:55;113.90;;;27.33;;
5465;SDS011;2755;50.728;7.108;2024-01-15T00:12:21;116.97;;;29.00;;
5465;SDS011;2755;50.728;7.108;2024-01-15T00:14:47;112.77;;;26.40;;
5465;SDS011;2755;50.728;7.108;2024-01-15T00:17:12;114.30;;;27.57;;
5465;SDS011;2755;50.728;7.108;2024-01-15T00:19:38;114.47;;;28.80;;
5465;SDS011;2755;50.728;7.108;2024-01-15T00:22:04;114.70;;;28.40;;
5465;SDS011;2755;50.728;7.108;2024-01-15T00:24:30;113.50;;;26.90;;
5465;SDS011;2755;50.728;7.108;2024-01-15T00:26:56;114.20;;;28.10;;
5465;SDS011;2755;50.728;7.108;2024-01-15T00:29:21;113.80;;;27.63;;
5465;SDS011;2755;50.728;7.108;2024-01-15T00:31:47;114.83;;;26.80;;
5465;SDS011;2755;50.728;7.108;2024-01-15T00:34:13;115.90;;;30.80;;
5465;SDS011;2755;50.728;7.108;2024-01-15T00:36:38;112.33;;;26.37;;
5465;SDS011;2755;50.728;7.108;2024-01-15T00:39:04;116.67;;;29.43;;
5465;SDS011;2755;50.728;7.108;2024-01-15T00:41:30;114.60;;;30.17;;
5465;SDS011;2755;50.728;7.108;2024-01-15T00:43:56;115.37;;;30.67;;
5465;SDS011;2755;50.728;7.108;2024-01-15T00:46:24;116.00;;;30.17;;
5465;SDS011;2755;50.728;7.108;2024-01-15T00:48:50;116.63;;;32.77;;
5465;SDS011;2755;50.728;7.108;2024-01-15T00:51:15;117.23;;;33.50;;
5465;SDS011;2755;50.728;7.108;2024-01-15T00:53:41;119.27;;;36.87;;
5465;SDS011;2755;50.728;7.108;2024-01-15T00:56:06;118.97;;;36.60;;
5465;SDS011;2755;50.728;7.108;2024-01-15T00:58:32;116.43;;;33.37;;
5465;SDS011;2755;50.728;7.108;2024-01-15T01:00:58;118.70;;;34.73;;
5465;SDS011;2755;50.728;7.108;2024-01-15T01:03:24;119.47;;;36.67;;
5465;SDS011;2755;50.728;7.108;2024-01-15T01:05:50;117.00;;;34.63;;
5465;SDS011;2755;50.728;7.108;2024-01-15T01:08:16;116.90;;;33.67;;
5465;SDS011;2755;50.728;7.108;2024-01-15T01:10:42;119.33;;;36.90;;
5465;SDS011;2755;50.728;7.108;2024-01-15T01:13:08;117.73;;;35.87;;
5465;SDS011;2755;50.728;7.108;2024-01-15T01:15:33;117.73;;;33.30;;
5465;SDS011;2755;50.728;7.108;2024-01-15T01:17:59;118.70;;;36.90;;
5465;SDS011;2755;50.728;7.108;2024-01-15T01:20:25;119.30;;;37.03;;
5465;SDS011;2755;50.728;7.108;2024-01-15T01:22:51;119.60;;;35.97;;
5465;SDS011;2755;50.728;7.108;2024-01-15T01:25:17;121.80;;;38.70;;
5465;SDS011;2755;50.728;7.108;2024-01-15T01:27:43;120.87;;;39.03;;
5465;SDS011;2755;50.728;7.108;2024-01-15T01:30:09;118.63;;;37.47;;
5465;SDS011;2755;50.728;7.108;2024-01-15T01:32:35;119.93;;;37.97;;
5465;SDS011;2755;50.728;7.108;2024-01-15T01:35:00;120.37;;;37.17;;
5465;SDS011;2755;50.728;7.108;2024-01-15T01:37:27;120.77;;;39.70;;
5465;SDS011;2755;50.728;7.108;2024-01-15T01:39:53;121.20;;;40.27;;
5465;SDS011;2755;50.728;7.108;2024-01-15T01:42:18;122.17;;;42.07;;
5465;SDS011;2755;50.728;7.108;2024-01-15T01:44:44;119.70;;;40.23;;
5465;SDS011;2755;50.728;7.108;2024-01-15T01:47:12;123.43;;;43.50;;
5465;SDS011;2755;50.728;7.108;2024-01-15T01:49:39;120.32;;;37.80;;
5465;SDS011;2755;50.728;7.108;2024-01-15T01:52:06;122.87;;;42.37;;
5465;SDS011;2755;50.728;7.108;2024-01-15T01:54:32;119.97;;;37.80;;
5465;SDS011;2755;50.728;7.108;2024-01-15T01:56:58;119.37;;;37.70;;
5465;SDS011;2755;50.728;7.108;2024-01-15T01:59:28;121.07;;;38.43;;
5465;SDS011;2755;50.728;7.108;2024-01-15T02:01:55;120.47;;;37.00;;
5465;SDS011;2755;50.728;7.108;2024-01-15T02:04:22;120.10;;;37.27;;
5465;SDS011;2755;50.728;7.108;2024-01-15T02:06:49;119.77;;;37.13;;
5465;SDS011;2755;50.728;7.108;2024-01-15T02:09:15;119.27;;;37.43;;
5465;SDS011;2755;50.728;7.108;2024-01-15T02:11:42;118.27;;;34.13;;
5465;SDS011;2755;50.728;7.108;2024-01-15T02:14:08;118.53;;;35.10;;
5465;SDS011;2755;50.728;7.108;2024-01-15T02:16:34;117.83;;;33.97;;
5465;SDS011;2755;50.728;7.108;2024-01-15T02:19:01;117.80;;;34.30;;
5465;SDS011;2755;50.728;7.108;2024-01-15T02:21:26;120.90;;;35.73;;
5465;SDS011;2755;50.728;7.108;2024-01-15T02:23:53;118.30;;;34.00;;
5465;SDS011;2755;50.728;7.108;2024-01-15T02:26:20;117.60;;;33.23;;
5465;SDS011;2755;50.728;7.108;2024-01-15T02:28:46;119.17;;;35.80;;
5465;SDS011;2755;50.728;7.108;2024-01-15T02:31:12;118.60;;;33.80;;
5465;SDS011;2755;50.728;7.108;2024-01-15T02:33:38;117.20;;;33.67;;
5465;SDS011;2755;50.728;7.108;2024-01-15T02:36:05;117.77;;;33.87;;
5465;SDS011;2755;50.728;7.108;2024-01-15T02:38:31;117.32;;;31.42;;
5465;SDS011;2755;50.728;7.108;2024-01-15T02:40:57;120.67;;;35.70;;
5465;SDS011;2755;50.728;7.108;2024-01-15T02:43:23;118.77;;;33.80;;
5465;SDS011;2755;50.728;7.108;2024-01-15T02:45:48;116.80;;;32.27;;
5465;SDS011;2755;50.728;7.108;2024-01-15T02:48:14;117.43;;;32.17;;
5465;SDS011;2755;50.728;7.108;2024-01-15T02:50:40;117.43;;;31.77;;
5465;SDS011;2755;50.728;7.108;2024-01-15T02:53:06;118.97;;;31.07;;
5465;SDS011;2755;50.728;7.108;2024-01-15T02:55:31;118.27;;;35.07;;
5465;SDS011;2755;50.728;7.108;2024-01-15T02:57:57;115.87;;;31.20;;
5465;SDS011;2755;50.728;7.108;2024-01-15T03:00:23;118.40;;;31.27;;
5465;SDS011;2755;50.728;7.108;2024-01-15T03:02:50;115.87;;;31.37;;
5465;SDS011;2755;50.728;7.108;2024-01-15T03:05:16;116.87;;;32.53;;
5465;SDS011;2755;50.728;7.108;2024-01-15T03:07:42;116.40;;;30.53;;
5465;SDS011;2755;50.728;7.108;2024-01-15T03:10:08;118.33;;;34.27;;
5465;SDS011;2755;50.728;7.108;2024-01-15T03:12:34;117.10;;;32.60;;
5465;SDS011;2755;50.728;7.108;2024-01-15T03:15:00;117.00;;;31.93;;
5465;SDS011;2755;50.728;7.108;2024-01-15T03:17:25;118.70;;;33.60;;
5465;SDS011;2755;50.728;7.108;2024-01-15T03:19:51;118.70;;;35.20;;
5465;SDS011;2755;50.728;7.108;2024-01-15T03:22:17;116.40;;;30.20;;
5465;SDS011;2755;50.728;7.108;2024-01-15T03:24:43;117.63;;;32.67;;
5465;SDS011;2755;50.728;7.108;2024-01-15T03:27:09;118.17;;;33.13;;
5465;SDS011;2755;50.728;7.108;2024-01-15T03:29:35;116.97;;;33.17;;
5465;SDS011;2755;50.728;7.108;2024-01-15T03:32:01;116.30;;;30.90;;
5465;SDS011;2755;50.728;7.108;2024-01-15T03:34:27;117.30;;;34.07;;
5465;SDS011;2755;50.728;7.108;2024-01-15T03:36:53;115.57;;;31.80;;
5465;SDS011;2755;50.728;7.108;2024-01-15T03:39:18;116.00;;;31.37;;
5465;SDS011;2755;50.728;7.108;2024-01-15T03:41:44;116.30;;;32.00;;
5465;SDS011;2755;50.728;7.108;2024-01-15T03:44:10;115.60;;;30.23;;
5465;SDS011;2755;50.728;7.108;2024-01-15T03:46:35;115.00;;;30.37;;
5465;SDS011;2755;50.728;7.108;2024-01-15T03:49:01;115.87;;;30.93;;
5465;SDS011;2755;50.728;7.108;2024-01-15T03:51:27;116.07;;;30.93;;
5465;SDS011;2755;50.728;7.108;2024-01-15T03:53:53;117.90;;;33.77;;
5465;SDS011;2755;50.728;7.108;2024-01-15T03:56:19;116.33;;;31.83;;
5465;SDS011;2755;50.728;7.108;2024-01-15T03:58:44;115.50;;;30.77;;
5465;SDS011;2755;50.728;7.108;2024-01-15T04:01:10;116.40;;;31.63;;
5465;SDS011;2755;50.728;7.108;2024-01-15T04:03:36;115.67;;;30.60;;
5465;SDS011;2755;50.728;7.108;2024-01-15T04:06:02;115.57;;;31.07;;
5465;SDS011;2755;50.728;7.108;2024-01-15T04:08:28;117.13;;;32.77;;
5465;SDS011;2755;50.728;7.108;2024-01-15T04:10:54;116.87;;;31.23;;
5465;SDS011;2755;50.728;7.108;2024-01-15T04:13:20;115.73;;;30.73;;
5465;SDS011;2755;50.728;7.108;2024-01-15T04:15:46;116.77;;;32.57;;
5465;SDS011;2755;50.728;7.108;2024-01-15T04:18:12;115.70;;;32.50;;
5465;SDS011;2755;50.728;7.108;2024-01-15T04:20:37;115.87;;;31.70;;
5465;SDS011;2755;50.728;7.108;2024-01-15T04:23:03;117.17;;;32.20;;
5465;SDS011;2755;50.728;7.108;2024-01-15T04:25:29;116.10;;;31.83;;
5465;SDS011;2755;50.728;7.108;2024-01-15T04:27:55;115.17;;;31.30;;
5465;SDS011;2755;50.728;7.108;2024-01-15T04:30:21;114.27;;;28.30;;
5465;SDS011;2755;50.728;7.108;2024-01-15T04:32:50;117.27;;;32.23;;
5465;SDS011;2755;50.728;7.108;2024-01-15T04:35:15;115.47;;;30.87;;
5465;SDS011;2755;50.728;7.108;2024-01-15T04:37:41;114.73;;;29.33;;
5465;SDS011;2755;50.728;7.108;2024-01-15T04:40:07;113.30;;;28.10;;
5465;SDS011;2755;50.728;7.108;2024-01-15T04:42:33;115.57;;;30.87;;
5465;SDS011;2755;50.728;7.108;2024-01-15T04:44:59;116.03;;;30.67;;
5465;SDS011;2755;50.728;7.108;2024-01-15T04:47:30;114.17;;;29.17;;
5465;SDS011;2755;50.728;7.108;2024-01-15T04:49:55;116.17;;;32.23;;
5465;SDS011;2755;50.728;7.108;2024-01-15T04:52:21;114.77;;;30.07;;
5465;SDS011;2755;50.728;7.108;2024-01-15T04:54:47;113.40;;;30.00;;
5465;SDS011;2755;50.728;7.108;2024-01-15T04:57:12;114.00;;;29.47;;
5465;SDS011;2755;50.728;7.108;2024-01-15T04:59:38;115.90;;;32.03;;
5465;SDS011;2755;50.728;7.108;2024-01-15T05:02:04;114.07;;;29.10;;
5465;SDS011;2755;50.728;7.108;2024-01-15T05:04:30;115.80;;;32.33;;
5465;SDS011;2755;50.728;7.108;2024-01-15T05:06:56;113.90;;;30.57;;
5465;SDS011;2755;50.728;7.108;2024-01-15T05:09:22;116.13;;;31.13;;
5465;SDS011;2755;50.728;7.108;2024-01-15T05:11:47;113.77;;;29.30;;
5465;SDS011;2755;50.728;7.108;2024-01-15T05:14:13;114.37;;;30.30;;
5465;SDS011;2755;50.728;7.108;2024-01-15T05:16:39;113.97;;;29.57;;
5465;SDS011;2755;50.728;7.108;2024-01-15T05:21:32;113.87;;;29.50;;
5465;SDS011;2755;50.728;7.108;2024-01-15T05:23:58;112.77;;;28.33;;
5465;SDS011;2755;50.728;7.108;2024-01-15T05:26:23;114.67;;;30.30;;
5465;SDS011;2755;50.728;7.108;2024-01-15T05:28:49;113.17;;;29.27;;
5465;SDS011;2755;50.728;7.108;2024-01-15T05:31:15;113.87;;;29.70;;
5465;SDS011;2755;50.728;7.108;2024-01-15T05:33:41;114.17;;;30.03;;
5465;SDS011;2755;50.728;7.108;2024-01-15T05:36:07;114.10;;;30.00;;
5465;SDS011;2755;50.728;7.108;2024-01-15T05:38:33;113.77;;;29.40;;
5465;SDS011;2755;50.728;7.108;2024-01-15T05:40:59;116.50;;;33.27;;
5465;SDS011;2755;50.728;7.108;2024-01-15T05:43:24;114.37;;;29.53;;
5465;SDS011;2755;50.728;7.108;2024-01-15T05:45:50;113.97;;;31.03;;
5465;SDS011;2755;50.728;7.108;2024-01-15T05:48:15;115.93;;;32.10;;
5465;SDS011;2755;50.728;7.108;2024-01-15T05:50:41;113.60;;;27.67;;
5465;SDS011;2755;50.728;7.108;2024-01-15T05:53:07;115.27;;;28.40;;
5465;SDS011;2755;50.728;7.108;2024-01-15T05:55:33;117.17;;;32.20;;
5465;SDS011;2755;50.728;7.108;2024-01-15T05:57:59;116.40;;;30.63;;
5465;SDS011;2755;50.728;7.108;2024-01-15T06:00:25;114.63;;;28.40;;
5465;SDS011;2755;50.728;7.108;2024-01-15T06:02:50;115.23;;;31.17;;
5465;SDS011;2755;50.728;7.108;2024-01-15T06:05:16;116.60;;;32.70;;
5465;SDS011;2755;50.728;7.108;2024-01-15T06:07:41;114.60;;;30.80;;
5465;SDS011;2755;50.728;7.108;2024-01-15T06:10:07;114.37;;;30.87;;
5465;SDS011;2755;50.728;7.108;2024-01-15T06:12:33;116.20;;;32.70;;
5465;SDS011;2755;50.728;7.108;2024-01-15T06:15:06;115.90;;;30.80;;
5465;SDS011;2755;50.728;7.108;2024-01-15T06:17:32;112.37;;;27.23;;
5465;SDS011;2755;50.728;7.108;2024-01-15T06:19:58;115.47;;;31.27;;
5465;SDS011;2755;50.728;7.108;2024-01-15T06:22:23;115.90;;;31.30;;
5465;SDS011;2755;50.728;7.108;2024-01-15T06:24:49;115.87;;;32.17;;
5465;SDS011;2755;50.728;7.108;2024-01-15T06:27:15;115.07;;;29.30;;
5465;SDS011;2755;50.728;7.108;2024-01-15T06:29:44;113.43;;;28.70;;
5465;SDS011;2755;50.728;7.108;2024-01-15T06:32:11;114.03;;;29.30;;
5465;SDS011;2755;50.728;7.108;2024-01-15T06:34:37;114.77;;;31.23;;
5465;SDS011;2755;50.728;7.108;2024-01-15T06:37:02;116.87;;;31.33;;
5465;SDS011;2755;50.728;7.108;2024-01-15T06:39:28;114.73;;;29.20;;
5465;SDS011;2755;50.728;7.108;2024-01-15T06:41:54;114.93;;;30.57;;
5465;SDS011;2755;50.728;7.108;2024-01-15T06:44:20;115.67;;;31.30;;
5465;SDS011;2755;50.728;7.108;2024-01-15T06:46:46;114.67;;;30.27;;
5465;SDS011;2755;50.728;7.108;2024-01-15T06:49:12;113.03;;;27.40;;
5465;SDS011;2755;50.728;7.108;2024-01-15T06:51:38;115.33;;;30.97;;
5465;SDS011;2755;50.728;7.108;2024-01-15T06:54:04;115.97;;;31.47;;
5465;SDS011;2755;50.728;7.108;2024-01-15T06:56:31;115.00;;;30.43;;
5465;SDS011;2755;50.728;7.108;2024-01-15T06:58:56;114.80;;;30.47;;
5465;SDS011;2755;50.728;7.108;2024-01-15T07:01:22;118.03;;;33.30;;
5465;SDS011;2755;50.728;7.108;2024-01-15T07:03:48;114.40;;;30.27;;
5465;SDS011;2755;50.728;7.108;2024-01-15T07:06:14;115.40;;;31.20;;
5465;SDS011;2755;50.728;7.108;2024-01-15T07:08:40;114.80;;;31.17;;
5465;SDS011;2755;50.728;7.108;2024-01-15T07:11:07;115.17;;;30.20;;
5465;SDS011;2755;50.728;7.108;2024-01-15T07:13:33;115.70;;;31.50;;
5465;SDS011;2755;50.728;7.108;2024-01-15T07:15:59;116.27;;;32.03;;
5465;SDS011;2755;50.728;7.108;2024-01-15T07:18:25;115.30;;;30.40;;
5465;SDS011;2755;50.728;7.108;2024-01-15T07:20:51;115.50;;;32.50;;
5465;SDS011;2755;50.728;7.108;2024-01-15T07:23:17;112.40;;;27.63;;
5465;SDS011;2755;50.728;7.108;2024-01-15T07:25:43;114.97;;;32.67;;
5465;SDS011;2755;50.728;7.108;2024-01-15T07:28:09;113.93;;;30.40;;
5465;SDS011;2755;50.728;7.108;2024-01-15T07:30:35;116.17;;;31.70;;
5465;SDS011;2755;50.728;7.108;2024-01-15T07:33:03;114.57;;;30.70;;
5465;SDS011;2755;50.728;7.108;2024-01-15T07:35:29;114.33;;;30.63;;
5465;SDS011;2755;50.728;7.108;2024-01-15T07:37:55;115.70;;;31.80;;
5465;SDS011;2755;50.728;7.108;2024-01-15T07:40:21;114.30;;;31.20;;
5465;SDS011;2755;50.728;7.108;2024-01-15T07:42:48;114.17;;;30.53;;
5465;SDS011;2755;50.728;7.108;2024-01-15T07:45:14;114.47;;;30.87;;
5465;SDS011;2755;50.728;7.108;2024-01-15T07:47:39;115.00;;;31.10;;
5465;SDS011;2755;50.728;7.108;2024-01-15T07:50:05;118.37;;;31.50;;
5465;SDS011;2755;50.728;7.108;2024-01-15T07:52:31;115.50;;;31.90;;
5465;SDS011;2755;50.728;7.108;2024-01-15T07:54:57;115.40;;;31.33;;
5465;SDS011;2755;50.728;7.108;2024-01-15T07:57:28;114.73;;;30.30;;
5465;SDS011;2755;50.728;7.108;2024-01-15T07:59:54;114.17;;;30.00;;
5465;SDS011;2755;50.728;7.108;2024-01-15T08:02:20;113.80;;;27.63;;
5465;SDS011;2755;50.728;7.108;2024-01-15T08:04:46;115.57;;;30.17;;
5465;SDS011;2755;50.728;7.108;2024-01-15T08:07:12;115.37;;;31.67;;
5465;SDS011;2755;50.728;7.108;2024-01-15T08:09:38;114.77;;;29.80;;
5465;SDS011;2755;50.728;7.108;2024-01-15T08:12:04;115.47;;;29.63;;
5465;SDS011;2755;50.728;7.108;2024-01-15T08:14:31;114.40;;;30.00;;
5465;SDS011;2755;50.728;7.108;2024-01-15T08:16:56;114.30;;;30.20;;
5465;SDS011;2755;50.728;7.108;2024-01-15T08:19:26;113.77;;;29.23;;
5465;SDS011;2755;50.728;7.108;2024-01-15T08:21:52;115.20;;;30.87;;
5465;SDS011;2755;50.728;7.108;2024-01-15T08:24:18;116.40;;;30.40;;
5465;SDS011;2755;50.728;7.108;2024-01-15T08:26:44;115.73;;;30.63;;
5465;SDS011;2755;50.728;7.108;2024-01-15T08:29:10;114.80;;;31.07;;
5465;SDS011;2755;50.728;7.108;2024-01-15T08:31:36;116.90;;;33.03;;
5465;SDS011;2755;50.728;7.108;2024-01-15T08:34:02;114.43;;;29.60;;
5465;SDS011;2755;50.728;7.108;2024-01-15T08:36:28;114.53;;;29.67;;
5465;SDS011;2755;50.728;7.108;2024-01-15T08:38:55;114.57;;;27.47;;
5465;SDS011;2755;50.728;7.108;2024-01-15T08:41:21;113.97;;;29.40;;
5465;SDS011;2755;50.728;7.108;2024-01-15T08:43:48;115.23;;;31.23;;
5465;SDS011;2755;50.728;7.108;2024-01-15T08:46:14;116.30;;;32.33;;
5465;SDS011;2755;50.728;7.108;2024-01-15T08:48:40;114.47;;;30.07;;
5465;SDS011;2755;50.728;7.108;2024-01-15T08:51:06;116.30;;;32.70;;
5465;SDS011;2755;50.728;7.108;2024-01-15T08:53:33;116.37;;;32.40;;
5465;SDS011;2755;50.728;7.108;2024-01-15T08:55:59;116.63;;;33.90;;
5465;SDS011;2755;50.728;7.108;2024-01-15T08:58:24;116.23;;;31.63;;
5465;SDS011;2755;50.728;7.108;2024-01-15T09:00:50;114.80;;;30.97;;
5465;SDS011;2755;50.728;7.108;2024-01-15T09:03:17;117.00;;;28.13;;
5465;SDS011;2755;50.728;7.108;2024-01-15T09:05:42;115.77;;;32.00;;
5465;SDS011;2755;50.728;7.108;2024-01-15T09:08:08;116.27;;;32.10;;
5465;SDS011;2755;50.728;7.108;2024-01-15T09:10:34;116.90;;;33.23;;
5465;SDS011;2755;50.728;7.108;2024-01-15T09:13:00;116.27;;;34.50;;
5465;SDS011;2755;50.728;7.108;2024-01-15T09:15:26;117.20;;;32.23;;
5465;SDS011;2755;50.728;7.108;2024-01-15T09:17:55;115.80;;;31.47;;
5465;SDS011;2755;50.728;7.108;2024-01-15T09:20:23;117.57;;;33.73;;
5465;SDS011;2755;50.728;7.108;2024-01-15T09:22:50;117.27;;;33.77;;
5465;SDS011;2755;50.728;7.108;2024-01-15T09:25:16;115.97;;;32.50;;
5465;SDS011;2755;50.728;7.108;2024-01-15T09:27:42;117.57;;;35.10;;
5465;SDS011;2755;50.728;7.108;2024-01-15T09:30:07;118.00;;;33.97;;
5465;SDS011;2755;50.728;7.108;2024-01-15T09:32:33;116.40;;;32.67;;
5465;SDS011;2755;50.728;7.108;2024-01-15T09:34:59;116.23;;;34.00;;
5465;SDS011;2755;50.728;7.108;2024-01-15T09:37:25;118.77;;;37.47;;
5465;SDS011;2755;50.728;7.108;2024-01-15T09:39:51;117.93;;;34.07;;
5465;SDS011;2755;50.728;7.108;2024-01-15T09:42:18;117.07;;;35.17;;
5465;SDS011;2755;50.728;7.108;2024-01-15T09:44:45;116.90;;;35.07;;
5465;SDS011;2755;50.728;7.108;2024-01-15T09:47:12;118.47;;;36.13;;
5465;SDS011;2755;50.728;7.108;2024-01-15T09:49:37;117.13;;;35.03;;
5465;SDS011;2755;50.728;7.108;2024-01-15T09:52:05;116.70;;;33.50;;
5465;SDS011;2755;50.728;7.108;2024-01-15T09:54:35;117.87;;;37.67;;
5465;SDS011;2755;50.728;7.108;2024-01-15T09:57:01;117.00;;;35.03;;
5465;SDS011;2755;50.728;7.108;2024-01-15T09:59:27;119.10;;;36.60;;
5465;SDS011;2755;50.728;7.108;2024-01-15T10:01:53;116.70;;;35.30;;
5465;SDS011;2755;50.728;7.108;2024-01-15T10:04:22;118.60;;;37.77;;
5465;SDS011;2755;50.728;7.108;2024-01-15T10:06:49;116.70;;;34.57;;
5465;SDS011;2755;50.728;7.108;2024-01-15T10:09:17;117.70;;;36.20;;
5465;SDS011;2755;50.728;7.108;2024-01-15T10:11:43;117.30;;;33.97;;
5465;SDS011;2755;50.728;7.108;2024-01-15T10:14:09;117.17;;;34.40;;
5465;SDS011;2755;50.728;7.108;2024-01-15T10:16:41;116.37;;;34.50;;
5465;SDS011;2755;50.728;7.108;2024-01-15T10:19:08;118.50;;;37.87;;
5465;SDS011;2755;50.728;7.108;2024-01-15T10:21:34;117.53;;;35.20;;
5465;SDS011;2755;50.728;7.108;2024-01-15T10:24:01;118.13;;;35.13;;
5465;SDS011;2755;50.728;7.108;2024-01-15T10:26:27;117.73;;;34.80;;
5465;SDS011;2755;50.728;7.108;2024-01-15T10:28:53;114.87;;;33.00;;
5465;SDS011;2755;50.728;7.108;2024-01-15T10:31:19;115.40;;;32.07;;
5465;SDS011;2755;50.728;7.108;2024-01-15T10:33:46;115.37;;;31.10;;
5465;SDS011;2755;50.728;7.108;2024-01-15T10:36:12;112.67;;;27.33;;
5465;SDS011;2755;50.728;7.108;2024-01-15T10:38:38;113.40;;;31.60;;
5465;SDS011;2755;50.728;7.108;2024-01-15T10:41:04;113.20;;;27.13;;
5465;SDS011;2755;50.728;7.108;2024-01-15T10:43:30;115.53;;;31.73;;
5465;SDS011;2755;50.728;7.108;2024-01-15T10:45:56;112.83;;;28.30;;
5465;SDS011;2755;50.728;7.108;2024-01-15T10:48:22;112.90;;;25.40;;
5465;SDS011;2755;50.728;7.108;2024-01-15T10:50:48;115.93;;;29.50;;
5465;SDS011;2755;50.728;7.108;2024-01-15T10:53:15;111.97;;;26.23;;
5465;SDS011;2755;50.728;7.108;2024-01-15T10:55:42;112.27;;;27.93;;
5465;SDS011;2755;50.728;7.108;2024-01-15T10:58:08;113.30;;;28.37;;
5465;SDS011;2755;50.728;7.108;2024-01-15T11:00:37;112.87;;;28.73;;
5465;SDS011;2755;50.728;7.108;2024-01-15T11:03:04;112.50;;;27.77;;
5465;SDS011;2755;50.728;7.108;2024-01-15T11:05:36;112.47;;;27.47;;
5465;SDS011;2755;50.728;7.108;2024-01-15T11:08:04;112.17;;;27.07;;
5465;SDS011;2755;50.728;7.108;2024-01-15T11:10:38;114.40;;;27.83;;
5465;SDS011;2755;50.728;7.108;2024-01-15T11:13:07;111.57;;;26.30;;
5465;SDS011;2755;50.728;7.108;2024-01-15T11:16:05;110.73;;;24.87;;
5465;SDS011;2755;50.728;7.108;2024-01-15T11:18:42;111.27;;;25.67;;
5465;SDS011;2755;50.728;7.108;2024-01-15T11:21:26;110.17;;;24.00;;
5465;SDS011;2755;50.728;7.108;2024-01-15T11:23:59;112.37;;;28.50;;
5465;SDS011;2755;50.728;7.108;2024-01-15T11:29:10;111.47;;;27.23;;
5465;SDS011;2755;50.728;7.108;2024-01-15T11:34:49;112.30;;;28.47;;
5465;SDS011;2755;50.728;7.108;2024-01-15T11:38:15;112.77;;;29.50;;
5465;SDS011;2755;50.728;7.108;2024-01-15T11:40:17;113.27;;;27.80;;
5465;SDS011;2755;50.728;7.108;2024-01-15T11:42:47;113.07;;;28.10;;
5465;SDS011;2755;50.728;7.108;2024-01-15T11:45:13;113.23;;;28.27;;
5465;SDS011;2755;50.728;7.108;2024-01-15T11:50:30;112.33;;;28.23;;
5465;SDS011;2755;50.728;7.108;2024-01-15T11:53:00;114.30;;;30.43;;
5465;SDS011;2755;50.728;7.108;2024-01-15T11:55:29;113.60;;;30.37;;
5465;SDS011;2755;50.728;7.108;2024-01-15T11:58:00;113.67;;;29.80;;
5465;SDS011;2755;50.728;7.108;2024-01-15T12:00:26;114.77;;;30.07;;
5465;SDS011;2755;50.728;7.108;2024-01-15T12:02:53;113.53;;;30.70;;
5465;SDS011;2755;50.728;7.108;2024-01-15T12:05:19;112.67;;;29.00;;
5465;SDS011;2755;50.728;7.108;2024-01-15T12:07:48;113.43;;;29.30;;
5465;SDS011;2755;50.728;7.108;2024-01-15T12:15:22;112.60;;;28.40;;
5465;SDS011;2755;50.728;7.108;2024-01-15T12:17:48;113.97;;;28.97;;
5465;SDS011;2755;50.728;7.108;2024-01-15T12:20:15;114.87;;;28.30;;
5465;SDS011;2755;50.728;7.108;2024-01-15T12:22:41;113.47;;;28.17;;
5465;SDS011;2755;50.728;7.108;2024-01-15T12:25:08;113.53;;;29.00;;
5465;SDS011;2755;50.728;7.108;2024-01-15T12:27:35;111.07;;;26.80;;
5465;SDS011;2755;50.728;7.108;2024-01-15T12:30:02;111.77;;;26.77;;
5465;SDS011;2755;50.728;7.108;2024-01-15T12:32:28;114.97;;;29.40;;
5465;SDS011;2755;50.728;7.108;2024-01-15T12:34:54;114.80;;;30.30;;
5465;SDS011;2755;50.728;7.108;2024-01-15T12:37:20;111.47;;;26.80;;
5465;SDS011;2755;50.728;7.108;2024-01-15T12:39:48;112.03;;;26.30;;
5465;SDS011;2755;50.728;7.108;2024-01-15T12:42:15;113.23;;;25.73;;
5465;SDS011;2755;50.728;7.108;2024-01-15T12:44:41;113.33;;;27.87;;
5465;SDS011;2755;50.728;7.108;2024-01-15T12:47:08;116.00;;;26.63;;
5465;SDS011;2755;50.728;7.108;2024-01-15T12:49:36;113.23;;;25.77;;
5465;SDS011;2755;50.728;7.108;2024-01-15T12:52:02;113.83;;;30.17;;
5465;SDS011;2755;50.728;7.108;2024-01-15T12:54:28;113.87;;;27.17;;
5465;SDS011;2755;50.728;7.108;2024-01-15T12:56:53;113.63;;;29.60;;
5465;SDS011;2755;50.728;7.108;2024-01-15T12:59:19;113.07;;;28.33;;
5465;SDS011;2755;50.728;7.108;2024-01-15T13:01:45;114.60;;;30.67;;
5465;SDS011;2755;50.728;7.108;2024-01-15T13:04:23;116.90;;;29.57;;
5465;SDS011;2755;50.728;7.108;2024-01-15T13:06:49;110.77;;;26.67;;
5465;SDS011;2755;50.728;7.108;2024-01-15T13:09:16;112.93;;;26.60;;
5465;SDS011;2755;50.728;7.108;2024-01-15T13:11:43;113.67;;;27.17;;
5465;SDS011;2755;50.728;7.108;2024-01-15T13:14:11;113.30;;;29.10;;
5465;SDS011;2755;50.728;7.108;2024-01-15T13:16:39;112.97;;;28.63;;
5465;SDS011;2755;50.728;7.108;2024-01-15T13:19:06;113.10;;;27.47;;
5465;SDS011;2755;50.728;7.108;2024-01-15T13:21:33;113.43;;;28.97;;
5465;SDS011;2755;50.728;7.108;2024-01-15T13:23:59;113.47;;;30.03;;
5465;SDS011;2755;50.728;7.108;2024-01-15T13:26:24;113.80;;;30.50;;
5465;SDS011;2755;50.728;7.108;2024-01-15T13:28:50;114.03;;;28.67;;
5465;SDS011;2755;50.728;7.108;2024-01-15T13:31:16;113.47;;;28.80;;
5465;SDS011;2755;50.728;7.108;2024-01-15T13:33:41;113.40;;;27.90;;
5465;SDS011;2755;50.728;7.108;2024-01-15T13:36:07;115.47;;;31.00;;
5465;SDS011;2755;50.728;7.108;2024-01-15T13:38:36;116.77;;;32.27;;
5465;SDS011;2755;50.728;7.108;2024-01-15T13:41:04;114.37;;;31.17;;
5465;SDS011;2755;50.728;7.108;2024-01-15T13:43:29;114.47;;;30.73;;
5465;SDS011;2755;50.728;7.108;2024-01-15T13:45:56;114.73;;;32.30;;
5465;SDS011;2755;50.728;7.108;2024-01-15T13:48:22;114.10;;;30.90;;
5465;SDS011;2755;50.728;7.108;2024-01-15T13:50:47;116.00;;;32.50;;
5465;SDS011;2755;50.728;7.108;2024-01-15T13:53:23;118.10;;;35.80;;
5465;SDS011;2755;50.728;7.108;2024-01-15T13:55:49;113.07;;;28.17;;
5465;SDS011;2755;50.728;7.108;2024-01-15T13:58:15;114.63;;;31.00;;
5465;SDS011;2755;50.728;7.108;2024-01-15T14:00:43;114.93;;;31.00;;
5465;SDS011;2755;50.728;7.108;2024-01-15T14:03:09;114.33;;;31.00;;
5465;SDS011;2755;50.728;7.108;2024-01-15T14:05:36;113.40;;;29.27;;
5465;SDS011;2755;50.728;7.108;2024-01-15T14:08:02;114.17;;;30.67;;
5465;SDS011;2755;50.728;7.108;2024-01-15T14:10:28;115.47;;;32.70;;
5465;SDS011;2755;50.728;7.108;2024-01-15T14:12:54;114.90;;;30.93;;
5465;SDS011;2755;50.728;7.108;2024-01-15T14:15:20;114.00;;;30.77;;
5465;SDS011;2755;50.728;7.108;2024-01-15T14:17:46;114.87;;;31.50;;
5465;SDS011;2755;50.728;7.108;2024-01-15T14:20:12;113.07;;;29.10;;
5465;SDS011;2755;50.728;7.108;2024-01-15T14:22:38;113.80;;;31.37;;
5465;SDS011;2755;50.728;7.108;2024-01-15T14:25:04;115.40;;;32.30;;
5465;SDS011;2755;50.728;7.108;2024-01-15T14:27:30;115.43;;;30.00;;
5465;SDS011;2755;50.728;7.108;2024-01-15T14:29:57;114.60;;;30.60;;
5465;SDS011;2755;50.728;7.108;2024-01-15T14:32:28;113.80;;;30.40;;
5465;SDS011;2755;50.728;7.108;2024-01-15T14:34:54;116.00;;;31.50;;
5465;SDS011;2755;50.728;7.108;2024-01-15T14:37:21;113.53;;;29.33;;
5465;SDS011;2755;50.728;7.108;2024-01-15T14:39:47;114.37;;;30.33;;
5465;SDS011;2755;50.728;7.108;2024-01-15T14:42:12;112.87;;;28.80;;
5465;SDS011;2755;50.728;7.108;2024-01-15T14:44:39;111.77;;;29.13;;